Meadow Lake, Alaska
Current Conditions -  °F | °C
As of 6:16 PM on Monday 20 Oct 2014 (Local Time) from PAWS Reporting Station
Clear Clear  
Wind Chill:   Ceiling: Unl
Heat Index:   Visibility: 10mi
Dew Point: -3°   Wind: 0mph
Humidity: 65%   Direction: NA
Pressure: 29.12"   Gusts: NA
Location:  61.5841°N, 149.443°W
Report Text: PAWS 210216Z AUTO 00000KT 10SM CLR 03/M03 A2912 RMK AO1
Loading
Personal Weather Stations






























Interactive Weather Map
Tropical Storm Tracking
New forecast layout! Learn more

10-Day Weather Forecast

Advertisements
Track Severe Weather on mobile